ITY1511 LIEE-LIEA
Flight info
| Callsign | ITY1511 |
|---|---|
| Flight time | N/A |
| Altitude | 14000 |
| Route | KOVAS M732 SODIO |
| Aircraft | A20N/M-SDE2E3FGHIRWXY/LB1 |
Departure
| Time | 2026-05-08 21:51 |
|---|---|
| Airport | Cagliari Elmas Airport (LIEE) |
Arrival
| Time | N/A |
|---|---|
| Airport | Alghero-Fertilia Airport (LIEA) |
| Time | Latitude | Longitude | Altitude | Speed | Heading |
|---|---|---|---|---|---|
| 2026-05-08 21:51 | 39.23655 | 9.07381 | 1012 ft | 176 kts | 120° |
| 2026-05-08 21:51 | 39.23406 | 9.08214 | 1463 ft | 167 kts | 96° |
| 2026-05-08 21:52 | 39.24472 | 9.10438 | 2076 ft | 177 kts | 15° |
| 2026-05-08 21:52 | 39.25232 | 9.10527 | 2237 ft | 185 kts | 351° |
| 2026-05-08 21:53 | 39.25465 | 9.10468 | 2286 ft | 187 kts | 344° |
| 2026-05-08 21:53 | 39.26223 | 9.09962 | 2461 ft | 196 kts | 322° |
| 2026-05-08 21:53 | 39.26862 | 9.09214 | 2644 ft | 205 kts | 317° |
| 2026-05-08 21:54 | 39.27562 | 9.08424 | 2821 ft | 214 kts | 323° |
| 2026-05-08 21:54 | 39.28406 | 9.07711 | 2917 ft | 229 kts | 333° |
| 2026-05-08 21:54 | 39.29410 | 9.07150 | 3200 ft | 235 kts | 342° |
| 2026-05-08 21:54 | 39.30488 | 9.06759 | 3628 ft | 235 kts | 348° |
| 2026-05-08 21:55 | 39.31572 | 9.06503 | 4067 ft | 235 kts | 352° |
| 2026-05-08 21:55 | 39.32798 | 9.06325 | 4530 ft | 235 kts | 355° |
| 2026-05-08 21:55 | 39.34069 | 9.06219 | 4838 ft | 236 kts | 357° |
| 2026-05-08 21:56 | 39.35421 | 9.06167 | 4984 ft | 236 kts | 358° |
| 2026-05-08 21:56 | 39.36997 | 9.06153 | 4982 ft | 235 kts | 359° |
| 2026-05-08 21:56 | 39.38242 | 9.06166 | 4988 ft | 235 kts | 360° |
| 2026-05-08 21:56 | 39.39334 | 9.06187 | 4990 ft | 235 kts | 0° |
| 2026-05-08 21:57 | 39.40426 | 9.06215 | 4992 ft | 235 kts | 0° |
| 2026-05-08 21:57 | 39.41518 | 9.06246 | 4993 ft | 235 kts | 0° |
| 2026-05-08 21:57 | 39.42609 | 9.06280 | 4993 ft | 235 kts | 0° |
| 2026-05-08 21:57 | 39.43701 | 9.06316 | 4993 ft | 235 kts | 0° |
| 2026-05-08 21:58 | 39.44776 | 9.06352 | 4994 ft | 235 kts | 1° |
| 2026-05-08 21:58 | 39.45890 | 9.06391 | 4994 ft | 235 kts | 1° |
| 2026-05-08 21:58 | 39.46981 | 9.06429 | 4994 ft | 235 kts | 1° |
| 2026-05-08 21:58 | 39.48062 | 9.06468 | 4994 ft | 235 kts | 1° |
| 2026-05-08 21:59 | 39.49153 | 9.06508 | 4994 ft | 235 kts | 1° |
| 2026-05-08 21:59 | 39.50245 | 9.06547 | 4994 ft | 235 kts | 1° |
| 2026-05-08 21:59 | 39.51304 | 9.06586 | 4994 ft | 235 kts | 1° |
| 2026-05-08 21:59 | 39.52384 | 9.06625 | 4994 ft | 235 kts | 1° |
| 2026-05-08 22:00 | 39.53454 | 9.06664 | 4994 ft | 235 kts | 1° |
| 2026-05-08 22:00 | 39.54529 | 9.06703 | 4994 ft | 235 kts | 1° |
| 2026-05-08 22:00 | 39.55604 | 9.06742 | 4994 ft | 235 kts | 1° |
| 2026-05-08 22:00 | 39.56674 | 9.06781 | 4994 ft | 235 kts | 1° |
| 2026-05-08 22:01 | 39.57749 | 9.06821 | 4994 ft | 235 kts | 1° |
| 2026-05-08 22:01 | 39.58824 | 9.06860 | 4994 ft | 235 kts | 1° |
| 2026-05-08 22:01 | 39.59893 | 9.06899 | 4994 ft | 235 kts | 1° |
| 2026-05-08 22:01 | 39.60963 | 9.06938 | 4994 ft | 235 kts | 1° |
| 2026-05-08 22:02 | 39.62054 | 9.06977 | 4994 ft | 235 kts | 1° |
| 2026-05-08 22:02 | 39.63124 | 9.07012 | 4993 ft | 235 kts | 358° |
| 2026-05-08 22:02 | 39.64186 | 9.06880 | 4987 ft | 234 kts | 347° |
| 2026-05-08 22:02 | 39.65191 | 9.06482 | 4990 ft | 235 kts | 336° |
| 2026-05-08 22:03 | 39.66144 | 9.05836 | 4996 ft | 235 kts | 330° |
| 2026-05-08 22:03 | 39.67054 | 9.05100 | 4996 ft | 235 kts | 328° |
| 2026-05-08 22:03 | 39.67954 | 9.04341 | 4995 ft | 235 kts | 328° |
| 2026-05-08 22:03 | 39.68851 | 9.03577 | 4994 ft | 235 kts | 328° |
| 2026-05-08 22:04 | 39.69736 | 9.02826 | 4994 ft | 235 kts | 328° |
| 2026-05-08 22:04 | 39.70636 | 9.02067 | 4994 ft | 235 kts | 328° |
| 2026-05-08 22:04 | 39.71538 | 9.01309 | 4994 ft | 235 kts | 328° |
| 2026-05-08 22:04 | 39.72372 | 9.00612 | 4994 ft | 236 kts | 328° |
| 2026-05-08 22:05 | 39.73202 | 8.99919 | 4994 ft | 236 kts | 328° |
| 2026-05-08 22:05 | 39.74070 | 8.99196 | 4994 ft | 236 kts | 328° |
| 2026-05-08 22:05 | 39.75012 | 8.98412 | 4994 ft | 236 kts | 328° |
| 2026-05-08 22:05 | 39.75954 | 8.97628 | 4994 ft | 236 kts | 328° |
| 2026-05-08 22:06 | 39.76916 | 8.96828 | 4994 ft | 236 kts | 328° |
| 2026-05-08 22:06 | 39.77859 | 8.96044 | 4994 ft | 236 kts | 328° |
| 2026-05-08 22:06 | 39.78728 | 8.95321 | 4994 ft | 236 kts | 328° |
| 2026-05-08 22:06 | 39.79520 | 8.94663 | 4994 ft | 236 kts | 328° |
| 2026-05-08 22:07 | 39.80371 | 8.93955 | 4994 ft | 236 kts | 328° |
| 2026-05-08 22:07 | 39.81204 | 8.93262 | 4994 ft | 236 kts | 328° |
| 2026-05-08 22:07 | 39.82023 | 8.92580 | 4994 ft | 236 kts | 328° |
| 2026-05-08 22:07 | 39.82894 | 8.91856 | 4994 ft | 236 kts | 328° |
| 2026-05-08 22:08 | 39.83820 | 8.91086 | 4994 ft | 236 kts | 328° |
| 2026-05-08 22:08 | 39.84677 | 8.90373 | 4994 ft | 236 kts | 328° |
| 2026-05-08 22:08 | 39.85585 | 8.89617 | 4994 ft | 236 kts | 328° |
| 2026-05-08 22:08 | 39.86550 | 8.88814 | 4994 ft | 236 kts | 328° |
| 2026-05-08 22:09 | 39.87458 | 8.88058 | 4994 ft | 237 kts | 328° |
| 2026-05-08 22:09 | 39.88335 | 8.87328 | 4994 ft | 237 kts | 328° |
| 2026-05-08 22:09 | 39.89262 | 8.86555 | 4994 ft | 237 kts | 328° |
| 2026-05-08 22:09 | 39.90171 | 8.85798 | 4994 ft | 237 kts | 328° |
| 2026-05-08 22:10 | 39.91098 | 8.85024 | 4994 ft | 237 kts | 328° |
| 2026-05-08 22:10 | 39.92025 | 8.84251 | 4994 ft | 237 kts | 328° |
| 2026-05-08 22:10 | 39.92952 | 8.83478 | 4994 ft | 236 kts | 328° |
| 2026-05-08 22:10 | 39.93860 | 8.82720 | 4994 ft | 236 kts | 328° |
| 2026-05-08 22:11 | 39.94787 | 8.81946 | 4994 ft | 236 kts | 328° |
| 2026-05-08 22:11 | 39.95732 | 8.81157 | 4994 ft | 236 kts | 328° |
| 2026-05-08 22:11 | 39.96663 | 8.80379 | 4994 ft | 236 kts | 328° |
| 2026-05-08 22:11 | 39.97551 | 8.79636 | 4994 ft | 236 kts | 328° |
| 2026-05-08 22:12 | 39.98476 | 8.78862 | 4994 ft | 236 kts | 328° |
| 2026-05-08 22:12 | 39.99420 | 8.78073 | 4994 ft | 236 kts | 328° |
| 2026-05-08 22:12 | 40.00294 | 8.77342 | 4994 ft | 236 kts | 328° |
| 2026-05-08 22:12 | 40.01219 | 8.76568 | 4994 ft | 236 kts | 328° |
| 2026-05-08 22:13 | 40.02142 | 8.75794 | 4994 ft | 236 kts | 328° |
| 2026-05-08 22:13 | 40.03011 | 8.75066 | 4994 ft | 236 kts | 328° |
| 2026-05-08 22:13 | 40.03952 | 8.74276 | 4994 ft | 236 kts | 328° |
| 2026-05-08 22:13 | 40.04894 | 8.73487 | 4994 ft | 236 kts | 328° |
| 2026-05-08 22:14 | 40.05853 | 8.72682 | 4994 ft | 236 kts | 328° |
| 2026-05-08 22:14 | 40.06794 | 8.71893 | 4994 ft | 236 kts | 328° |
| 2026-05-08 22:14 | 40.07716 | 8.71119 | 4994 ft | 235 kts | 328° |
| 2026-05-08 22:14 | 40.08656 | 8.70329 | 4994 ft | 235 kts | 328° |
| 2026-05-08 22:15 | 40.09615 | 8.69524 | 4994 ft | 235 kts | 328° |
| 2026-05-08 22:15 | 40.10467 | 8.68809 | 4994 ft | 235 kts | 328° |
| 2026-05-08 22:15 | 40.11390 | 8.68039 | 4994 ft | 235 kts | 329° |
| 2026-05-08 22:15 | 40.12277 | 8.67300 | 4994 ft | 235 kts | 329° |
| 2026-05-08 22:16 | 40.13160 | 8.66564 | 4991 ft | 232 kts | 328° |
| 2026-05-08 22:16 | 40.14032 | 8.65834 | 4982 ft | 222 kts | 328° |
| 2026-05-08 22:16 | 40.14880 | 8.65122 | 4977 ft | 212 kts | 328° |
| 2026-05-08 22:16 | 40.15704 | 8.64430 | 4973 ft | 201 kts | 329° |
| 2026-05-08 22:17 | 40.16494 | 8.63766 | 4977 ft | 196 kts | 329° |
| 2026-05-08 22:17 | 40.17550 | 8.62878 | 4989 ft | 196 kts | 329° |
| 2026-05-08 22:17 | 40.18486 | 8.62092 | 4990 ft | 197 kts | 329° |
| 2026-05-08 22:17 | 40.19156 | 8.61528 | 4992 ft | 197 kts | 329° |
| 2026-05-08 22:18 | 40.19436 | 8.61291 | 4992 ft | 197 kts | 329° |
| 2026-05-08 22:18 | 40.19833 | 8.60957 | 4992 ft | 197 kts | 329° |
| 2026-05-08 22:18 | 40.20571 | 8.60335 | 4993 ft | 197 kts | 329° |
| 2026-05-08 22:18 | 40.21175 | 8.59825 | 4993 ft | 197 kts | 329° |
| 2026-05-08 22:19 | 40.21621 | 8.59449 | 4993 ft | 197 kts | 329° |
| 2026-05-08 22:19 | 40.22363 | 8.58823 | 4994 ft | 197 kts | 329° |
| 2026-05-08 22:19 | 40.22613 | 8.58612 | 4994 ft | 197 kts | 329° |
| 2026-05-08 22:19 | 40.23351 | 8.57989 | 4994 ft | 197 kts | 329° |
| 2026-05-08 22:20 | 40.24089 | 8.57365 | 4994 ft | 197 kts | 329° |
| 2026-05-08 22:20 | 40.24812 | 8.56755 | 4994 ft | 196 kts | 329° |
| 2026-05-08 22:20 | 40.25581 | 8.56105 | 4994 ft | 196 kts | 329° |
| 2026-05-08 22:20 | 40.26350 | 8.55456 | 4994 ft | 197 kts | 329° |
| 2026-05-08 22:21 | 40.27083 | 8.54823 | 4994 ft | 197 kts | 327° |
| 2026-05-08 22:21 | 40.27784 | 8.54168 | 4994 ft | 197 kts | 324° |
| 2026-05-08 22:21 | 40.28492 | 8.53443 | 4995 ft | 197 kts | 322° |
| 2026-05-08 22:21 | 40.29193 | 8.52666 | 4995 ft | 197 kts | 321° |
| 2026-05-08 22:22 | 40.29887 | 8.51878 | 4994 ft | 197 kts | 321° |
| 2026-05-08 22:22 | 40.30567 | 8.51105 | 4994 ft | 197 kts | 321° |
| 2026-05-08 22:22 | 40.31232 | 8.50346 | 4994 ft | 197 kts | 321° |
| 2026-05-08 22:22 | 40.31914 | 8.49568 | 4994 ft | 197 kts | 321° |
| 2026-05-08 22:23 | 40.32645 | 8.48735 | 4994 ft | 197 kts | 321° |
| 2026-05-08 22:23 | 40.33622 | 8.47622 | 4995 ft | 197 kts | 321° |
| 2026-05-08 22:23 | 40.34613 | 8.46492 | 4995 ft | 198 kts | 321° |
| 2026-05-08 22:23 | 40.35666 | 8.45291 | 4994 ft | 197 kts | 321° |
| 2026-05-08 22:24 | 40.36631 | 8.44191 | 4993 ft | 197 kts | 321° |
| 2026-05-08 22:24 | 40.37539 | 8.43156 | 4993 ft | 197 kts | 321° |
| 2026-05-08 22:24 | 40.38290 | 8.42299 | 4993 ft | 197 kts | 321° |
| 2026-05-08 22:24 | 40.39024 | 8.41462 | 4993 ft | 197 kts | 321° |
| 2026-05-08 22:25 | 40.39771 | 8.40608 | 4993 ft | 197 kts | 321° |
| 2026-05-08 22:25 | 40.40602 | 8.39660 | 4994 ft | 197 kts | 321° |
| 2026-05-08 22:25 | 40.41769 | 8.38326 | 4553 ft | 214 kts | 321° |
| 2026-05-08 22:25 | 40.42519 | 8.37473 | 3713 ft | 237 kts | 321° |
| 2026-05-08 22:26 | 40.43328 | 8.36551 | 3170 ft | 243 kts | 320° |
| 2026-05-08 22:26 | 40.44201 | 8.35553 | 2938 ft | 233 kts | 320° |
| 2026-05-08 22:26 | 40.45203 | 8.34400 | 2921 ft | 212 kts | 320° |
| 2026-05-08 22:26 | 40.46069 | 8.33393 | 2900 ft | 196 kts | 320° |
| 2026-05-08 22:27 | 40.46802 | 8.32543 | 2901 ft | 195 kts | 320° |
| 2026-05-08 22:27 | 40.47515 | 8.31720 | 2726 ft | 199 kts | 320° |
| 2026-05-08 22:27 | 40.48248 | 8.30879 | 2379 ft | 201 kts | 320° |
| 2026-05-08 22:27 | 40.48991 | 8.30025 | 2325 ft | 193 kts | 320° |
| 2026-05-08 22:28 | 40.49725 | 8.29182 | 2330 ft | 194 kts | 320° |
| 2026-05-08 22:28 | 40.50454 | 8.28345 | 2330 ft | 194 kts | 320° |
| 2026-05-08 22:28 | 40.51193 | 8.27497 | 2330 ft | 194 kts | 320° |
| 2026-05-08 22:28 | 40.51919 | 8.26664 | 2331 ft | 194 kts | 320° |
| 2026-05-08 22:29 | 40.52794 | 8.25659 | 2331 ft | 194 kts | 320° |
| 2026-05-08 22:29 | 40.53626 | 8.24705 | 2331 ft | 194 kts | 320° |
| 2026-05-08 22:29 | 40.54376 | 8.23967 | 2320 ft | 193 kts | 336° |
| 2026-05-08 22:29 | 40.55705 | 8.23837 | 2300 ft | 193 kts | 21° |
| 2026-05-08 22:30 | 40.56599 | 8.24443 | 2334 ft | 194 kts | 31° |
| 2026-05-08 22:30 | 40.57662 | 8.25339 | 2296 ft | 196 kts | 31° |
| 2026-05-08 22:30 | 40.58508 | 8.26030 | 1508 ft | 222 kts | 30° |
| 2026-05-08 22:30 | 40.59314 | 8.26629 | 977 ft | 231 kts | 27° |
| 2026-05-08 22:31 | 40.60131 | 8.27185 | 562 ft | 235 kts | 26° |
| 2026-05-08 22:31 | 40.60994 | 8.27735 | 540 ft | 214 kts | 25° |
| 2026-05-08 22:31 | 40.61794 | 8.28241 | 329 ft | 203 kts | 25° |
| 2026-05-08 22:31 | 40.62568 | 8.28715 | 93 ft | 192 kts | 24° |
| 2026-05-08 22:32 | 40.63251 | 8.29124 | 83 ft | 174 kts | 24° |
| 2026-05-08 22:32 | 40.63916 | 8.29551 | 89 ft | 161 kts | 23° |
| 2026-05-08 22:32 | 40.64531 | 8.29944 | 97 ft | 142 kts | 26° |
| 2026-05-08 22:32 | 40.65060 | 8.30300 | 90 ft | 123 kts | 27° |
| 2026-05-08 22:33 | 40.65539 | 8.30633 | 246 ft | 125 kts | 27° |
| 2026-05-08 22:33 | 40.66288 | 8.31178 | 580 ft | 140 kts | 30° |
| 2026-05-08 22:33 | 40.67290 | 8.31291 | 1105 ft | 141 kts | 317° |
| 2026-05-08 22:33 | 40.67274 | 8.30174 | 461 ft | 212 kts | 187° |
| 2026-05-08 22:34 | 40.65697 | 8.30710 | 603 ft | 238 kts | 164° |
| 2026-05-08 22:34 | 40.63947 | 8.30731 | 1311 ft | 245 kts | 188° |
| 2026-05-08 22:34 | 40.62313 | 8.30172 | 2029 ft | 250 kts | 199° |
| 2026-05-08 22:34 | 40.60683 | 8.29151 | 2790 ft | 254 kts | 210° |
| 2026-05-08 22:35 | 40.59139 | 8.28117 | 3615 ft | 253 kts | 205° |
| 2026-05-08 22:35 | 40.57755 | 8.27288 | 4202 ft | 259 kts | 208° |
| 2026-05-08 22:35 | 40.56789 | 8.25490 | 3789 ft | 295 kts | 267° |
| 2026-05-08 22:35 | 40.57965 | 8.23621 | 2082 ft | 348 kts | 342° |
| 2026-05-08 22:36 | 40.60143 | 8.23935 | 1583 ft | 356 kts | 16° |